createdAt,value
2018-01-10T00:00:26.190Z,96.40
2018-01-10T00:01:31.560Z,96.50
2018-01-10T00:02:36.205Z,96.50
2018-01-10T00:03:40.776Z,96.50
2018-01-10T00:04:45.404Z,96.60
2018-01-10T00:05:51.337Z,96.50
2018-01-10T00:06:55.905Z,96.50
2018-01-10T00:08:01.481Z,96.80
2018-01-10T00:09:06.408Z,96.50
2018-01-10T00:10:11.047Z,96.60
2018-01-10T00:11:15.721Z,96.60
2018-01-10T00:12:20.327Z,96.60
2018-01-10T00:13:25.010Z,96.50
2018-01-10T00:14:29.615Z,96.50
2018-01-10T00:15:34.201Z,96.60
2018-01-10T00:16:39.004Z,96.60
2018-01-10T00:17:43.954Z,96.50
2018-01-10T00:18:48.589Z,96.60
2018-01-10T00:19:53.184Z,96.60
2018-01-10T00:20:57.712Z,96.60
2018-01-10T00:22:02.296Z,96.70
2018-01-10T00:23:06.875Z,96.70
2018-01-10T00:24:12.417Z,96.70
2018-01-10T00:25:17.130Z,96.70
2018-01-10T00:26:22.508Z,96.60
2018-01-10T00:27:27.079Z,96.60
2018-01-10T00:28:31.634Z,96.70
2018-01-10T00:29:36.524Z,96.70
2018-01-10T00:30:41.104Z,96.70
2018-01-10T00:31:45.649Z,96.80
2018-01-10T00:32:50.349Z,96.90
2018-01-10T00:33:55.783Z,96.90
2018-01-10T00:35:01.133Z,96.90
2018-01-10T00:36:06.088Z,96.90
2018-01-10T00:37:10.982Z,97.00
2018-01-10T00:38:15.582Z,97.00
2018-01-10T00:39:20.202Z,97.00
2018-01-10T00:40:25.669Z,97.10
2018-01-10T00:41:30.433Z,97.10
2018-01-10T00:42:35.824Z,97.10
2018-01-10T00:43:40.507Z,97.10
2018-01-10T00:44:45.107Z,97.10
2018-01-10T00:45:49.777Z,97.10
2018-01-10T00:46:54.673Z,97.20
2018-01-10T00:47:59.518Z,97.20
2018-01-10T00:49:04.569Z,97.20
2018-01-10T00:50:10.329Z,97.30
2018-01-10T00:51:15.658Z,97.30
2018-01-10T00:52:20.962Z,97.30
2018-01-10T00:53:25.547Z,97.30
2018-01-10T00:54:30.137Z,97.40
2018-01-10T00:55:34.757Z,97.40
2018-01-10T00:56:39.394Z,97.40
2018-01-10T00:57:44.313Z,97.40
2018-01-10T00:58:48.930Z,97.40
2018-01-10T00:59:53.498Z,97.50
2018-01-10T01:00:58.336Z,97.50
2018-01-10T01:02:02.949Z,97.50
2018-01-10T01:03:07.519Z,97.50
2018-01-10T01:04:12.366Z,97.50
2018-01-10T01:05:17.362Z,97.50
2018-01-10T01:06:22.713Z,97.60
2018-01-10T01:07:28.090Z,97.50
2018-01-10T01:08:32.710Z,97.50
2018-01-10T01:09:37.412Z,97.60
2018-01-10T01:10:42.268Z,97.60
2018-01-10T01:11:46.861Z,97.60
2018-01-10T01:12:51.424Z,97.70
2018-01-10T01:13:56.832Z,97.70
2018-01-10T01:15:01.450Z,97.70
2018-01-10T01:16:07.729Z,97.70
2018-01-10T01:17:12.314Z,97.70
2018-01-10T01:18:16.885Z,97.70
2018-01-10T01:19:21.468Z,97.80
2018-01-10T01:20:26.289Z,97.70
2018-01-10T01:21:30.912Z,97.70
2018-01-10T01:22:35.463Z,97.70
2018-01-10T01:23:40.103Z,97.60
2018-01-10T01:24:45.945Z,97.70
2018-01-10T01:25:50.484Z,97.70
2018-01-10T01:26:55.028Z,97.60
2018-01-10T01:28:00.499Z,97.70
2018-01-10T01:29:05.156Z,97.60
2018-01-10T01:30:09.791Z,97.60
2018-01-10T01:32:49.206Z,97.60
2018-01-10T01:33:53.883Z,97.60
2018-01-10T01:34:58.927Z,97.60
2018-01-10T01:36:04.280Z,97.80
2018-01-10T01:37:08.844Z,98.00
2018-01-10T01:38:13.621Z,97.80
2018-01-10T01:39:18.218Z,97.70
2018-01-10T01:40:23.076Z,97.70
2018-01-10T01:41:27.644Z,97.80
2018-01-10T01:42:32.995Z,97.80
2018-01-10T01:43:37.581Z,97.80
2018-01-10T01:44:43.100Z,97.70
2018-01-10T01:45:47.992Z,97.70
2018-01-10T01:46:52.593Z,97.70
2018-01-10T01:47:57.200Z,97.70
2018-01-10T01:49:01.812Z,97.80
2018-01-10T01:50:06.933Z,97.80
2018-01-10T01:51:11.735Z,97.80
2018-01-10T01:52:17.457Z,97.80
2018-01-10T01:53:23.056Z,97.80
2018-01-10T01:54:27.643Z,97.80
2018-01-10T01:55:34.394Z,97.80
2018-01-10T01:56:39.459Z,97.70
2018-01-10T01:57:44.157Z,97.70
2018-01-10T01:58:48.748Z,97.70
2018-01-10T01:59:53.444Z,97.70
2018-01-10T02:00:58.061Z,97.70
2018-01-10T02:02:03.969Z,97.70
2018-01-10T02:03:08.622Z,97.70
2018-01-10T02:04:14.205Z,97.70
2018-01-10T02:05:18.855Z,97.70
2018-01-10T02:06:23.428Z,97.70
2018-01-10T02:07:28.272Z,97.70
2018-01-10T02:08:33.134Z,97.60
2018-01-10T02:09:38.732Z,97.60
2018-01-10T02:10:43.715Z,97.50
2018-01-10T02:11:48.785Z,97.50
2018-01-10T02:12:53.399Z,97.50
2018-01-10T02:13:57.997Z,97.50
2018-01-10T02:15:02.557Z,97.50
2018-01-10T02:16:07.904Z,97.60
2018-01-10T02:17:12.512Z,97.60
2018-01-10T02:18:18.252Z,97.50
2018-01-10T02:19:22.863Z,97.50
2018-01-10T02:20:28.232Z,97.50
2018-01-10T02:21:32.816Z,97.50
2018-01-10T02:22:38.535Z,97.40
2018-01-10T02:23:44.057Z,97.40
2018-01-10T02:24:48.688Z,97.40
2018-01-10T02:25:54.030Z,97.40
2018-01-10T02:26:59.398Z,97.30
2018-01-10T02:28:03.988Z,97.30
2018-01-10T02:29:08.727Z,97.20
2018-01-10T02:30:13.806Z,97.20
2018-01-10T02:31:19.447Z,97.20
2018-01-10T02:32:25.264Z,97.20
2018-01-10T02:33:29.844Z,97.20
2018-01-10T02:34:34.439Z,97.20
2018-01-10T02:35:38.980Z,97.10
2018-01-10T02:36:43.853Z,97.20
2018-01-10T02:37:49.197Z,97.10
2018-01-10T02:38:54.160Z,97.20
2018-01-10T02:39:59.078Z,97.10
2018-01-10T02:41:03.614Z,97.00
2018-01-10T02:42:08.361Z,97.10
2018-01-10T02:43:13.817Z,97.10
2018-01-10T02:44:19.177Z,97.10
2018-01-10T02:45:23.762Z,97.10
2018-01-10T02:46:28.679Z,97.00
2018-01-10T02:47:33.284Z,97.00
2018-01-10T02:48:38.454Z,97.00
2018-01-10T02:49:43.292Z,97.00
2018-01-10T02:50:47.885Z,97.00
2018-01-10T02:51:52.461Z,97.00
2018-01-10T02:52:57.774Z,97.00
2018-01-10T02:54:03.426Z,96.90
2018-01-10T02:55:08.088Z,96.90
2018-01-10T02:56:12.758Z,96.90
2018-01-10T02:57:17.371Z,97.00
2018-01-10T02:58:22.754Z,97.00
2018-01-10T02:59:27.363Z,97.00
2018-01-10T03:00:31.949Z,97.00
2018-01-10T03:01:36.491Z,97.00
2018-01-10T03:02:41.198Z,96.90
2018-01-10T03:03:45.794Z,96.90
2018-01-10T03:04:50.440Z,96.90
2018-01-10T03:05:55.044Z,97.00
2018-01-10T03:06:59.600Z,96.80
2018-01-10T03:08:04.985Z,97.00
2018-01-10T03:09:09.589Z,97.00
2018-01-10T03:10:14.186Z,97.00
2018-01-10T03:11:18.728Z,97.00
2018-01-10T03:12:23.341Z,97.00
2018-01-10T03:13:27.961Z,96.90
2018-01-10T03:14:32.526Z,96.90
2018-01-10T03:15:37.982Z,97.00
2018-01-10T03:16:42.575Z,97.10
2018-01-10T03:17:48.116Z,97.00
2018-01-10T03:18:52.653Z,96.90
2018-01-10T03:19:57.248Z,97.10
2018-01-10T03:21:01.853Z,97.00
2018-01-10T03:22:07.839Z,97.00
2018-01-10T03:23:12.866Z,97.00
2018-01-10T03:24:18.069Z,97.00
2018-01-10T03:25:22.957Z,97.00
2018-01-10T03:26:28.293Z,97.00
2018-01-10T03:27:33.604Z,97.00
2018-01-10T03:28:38.230Z,97.00
2018-01-10T03:29:43.562Z,97.00
2018-01-10T03:30:49.318Z,97.00
2018-01-10T03:31:53.905Z,97.00
2018-01-10T03:32:58.436Z,97.10
2018-01-10T03:34:03.789Z,97.00
2018-01-10T03:35:08.521Z,97.00
2018-01-10T03:36:13.292Z,97.00
2018-01-10T03:37:18.925Z,97.00
2018-01-10T03:38:23.549Z,97.10
2018-01-10T03:39:29.039Z,97.10
2018-01-10T03:40:33.637Z,97.10
2018-01-10T03:41:38.238Z,97.00
2018-01-10T03:42:42.856Z,97.30
2018-01-10T03:43:47.849Z,97.20
2018-01-10T03:44:52.477Z,97.20
2018-01-10T03:45:58.200Z,97.20
2018-01-10T03:47:04.877Z,97.20
2018-01-10T03:48:10.492Z,97.10
2018-01-10T03:49:15.118Z,97.10
2018-01-10T03:50:20.968Z,97.10
2018-01-10T03:51:26.482Z,97.20
2018-01-10T03:52:31.358Z,97.20
2018-01-10T03:53:36.268Z,97.20
2018-01-10T03:54:40.961Z,97.20
2018-01-10T03:55:46.371Z,97.20
2018-01-10T03:56:51.270Z,97.10
2018-01-10T03:57:56.064Z,97.10
2018-01-10T03:59:00.625Z,97.10
2018-01-10T04:00:07.073Z,97.10
2018-01-10T04:01:12.312Z,97.10
2018-01-10T04:02:16.891Z,97.10
2018-01-10T04:03:21.893Z,97.10
2018-01-10T04:04:26.557Z,97.10
2018-01-10T04:05:31.268Z,97.10
2018-01-10T04:06:36.170Z,97.10
2018-01-10T04:07:41.597Z,97.10
2018-01-10T04:08:46.195Z,97.40
2018-01-10T04:09:50.784Z,97.10
2018-01-10T04:10:56.210Z,97.10
2018-01-10T04:12:00.783Z,97.10
2018-01-10T04:13:05.849Z,97.10
2018-01-10T04:14:11.444Z,97.10
2018-01-10T04:15:16.384Z,97.10
2018-01-10T04:16:21.490Z,97.10
2018-01-10T04:17:26.065Z,97.10
2018-01-10T04:18:31.048Z,97.10
2018-01-10T04:19:35.764Z,97.10
2018-01-10T04:20:40.429Z,97.20
2018-01-10T04:21:44.977Z,97.30
2018-01-10T04:22:49.885Z,97.40
2018-01-10T04:23:55.079Z,97.40
2018-01-10T04:25:00.396Z,97.40
2018-01-10T04:26:05.759Z,97.40
2018-01-10T04:27:10.383Z,97.40
2018-01-10T04:28:14.958Z,97.40
2018-01-10T04:29:20.547Z,97.30
2018-01-10T04:30:25.129Z,97.30
2018-01-10T04:31:29.843Z,97.30
2018-01-10T04:32:35.260Z,97.30
2018-01-10T04:33:40.650Z,97.30
2018-01-10T04:34:45.447Z,97.30
2018-01-10T04:35:50.120Z,97.30
2018-01-10T04:36:54.730Z,97.40
2018-01-10T04:37:59.312Z,97.40
2018-01-10T04:39:04.065Z,97.40
2018-01-10T04:40:08.685Z,97.40
2018-01-10T04:41:14.136Z,97.70
2018-01-10T04:42:18.760Z,97.40
2018-01-10T04:43:23.853Z,97.40
2018-01-10T04:44:28.820Z,97.40
2018-01-10T04:45:33.678Z,97.40
2018-01-10T04:46:38.374Z,97.50
2018-01-10T04:47:42.991Z,97.40
2018-01-10T04:48:48.058Z,97.50
2018-01-10T04:49:53.388Z,97.40
2018-01-10T04:50:58.861Z,97.40
2018-01-10T04:52:03.482Z,97.40
2018-01-10T04:53:08.085Z,97.50
2018-01-10T04:54:12.842Z,97.50
2018-01-10T04:55:17.613Z,97.50
2018-01-10T04:56:22.265Z,97.40
2018-01-10T04:57:26.976Z,97.40
2018-01-10T04:58:31.541Z,97.50
2018-01-10T04:59:36.903Z,97.50
2018-01-10T05:00:41.597Z,97.50
2018-01-10T05:01:46.184Z,97.50
2018-01-10T05:02:51.736Z,97.60
2018-01-10T05:03:57.065Z,97.60
2018-01-10T05:05:01.653Z,97.60
2018-01-10T05:06:06.863Z,97.50
2018-01-10T05:07:11.426Z,97.50
2018-01-10T05:08:16.856Z,97.50
2018-01-10T05:09:22.424Z,97.50
2018-01-10T05:10:27.076Z,97.50
2018-01-10T05:11:31.991Z,97.50
2018-01-10T05:12:36.756Z,97.50
2018-01-10T05:13:41.437Z,97.50
2018-01-10T05:14:46.237Z,97.40
2018-01-10T05:15:50.880Z,97.40
2018-01-10T05:16:55.574Z,97.30
2018-01-10T05:18:00.463Z,97.30
2018-01-10T05:19:05.145Z,97.40
2018-01-10T05:20:09.857Z,97.50
2018-01-10T05:21:15.491Z,97.60
2018-01-10T05:22:20.217Z,97.60
2018-01-10T05:23:25.594Z,97.70
2018-01-10T05:24:30.997Z,97.70
2018-01-10T05:25:35.636Z,97.70
2018-01-10T05:26:40.263Z,97.70
2018-01-10T05:27:44.875Z,97.80
2018-01-10T05:28:49.421Z,97.90
2018-01-10T05:29:54.203Z,97.80
2018-01-10T05:30:58.869Z,97.70
2018-01-10T05:32:04.195Z,97.60
2018-01-10T05:33:09.551Z,97.60
2018-01-10T05:34:14.200Z,97.60
2018-01-10T05:35:19.373Z,97.60
2018-01-10T05:36:25.024Z,97.70
2018-01-10T05:37:30.349Z,97.80
2018-01-10T05:38:35.692Z,97.80
2018-01-10T05:39:40.253Z,97.50
2018-01-10T05:40:44.993Z,97.80
2018-01-10T05:41:49.790Z,97.80
2018-01-10T05:42:54.425Z,97.80
2018-01-10T05:43:59.221Z,97.70
2018-01-10T05:45:03.935Z,97.80
2018-01-10T05:46:08.898Z,97.80
2018-01-10T05:47:14.406Z,97.80
2018-01-10T05:48:19.291Z,97.80
2018-01-10T05:49:23.989Z,97.70
2018-01-10T05:50:28.600Z,97.60
2018-01-10T05:51:33.762Z,97.60
2018-01-10T05:52:38.317Z,97.60
2018-01-10T05:53:43.684Z,97.60
2018-01-10T05:54:48.404Z,97.60
2018-01-10T05:55:52.942Z,97.60
2018-01-10T05:56:57.529Z,97.50
2018-01-10T05:58:02.089Z,97.50
2018-01-10T05:59:06.768Z,97.50
2018-01-10T06:00:11.808Z,97.60
2018-01-10T06:02:33.884Z,97.60
2018-01-10T06:03:39.418Z,97.60
2018-01-10T06:04:45.432Z,97.50
2018-01-10T06:05:50.026Z,97.60
2018-01-10T06:06:54.636Z,97.50
2018-01-10T06:07:59.650Z,97.50
2018-01-10T06:09:04.386Z,97.50
2018-01-10T06:10:09.149Z,97.60
2018-01-10T06:11:14.621Z,97.60
2018-01-10T06:12:19.522Z,97.60
2018-01-10T06:13:24.827Z,97.60
2018-01-10T06:14:29.539Z,97.70
2018-01-10T06:15:35.202Z,97.70
2018-01-10T06:16:40.609Z,97.70
2018-01-10T06:17:45.952Z,97.70
2018-01-10T06:18:51.834Z,97.70
2018-01-10T06:19:56.417Z,97.70
2018-01-10T06:21:01.808Z,97.60
2018-01-10T06:22:06.528Z,97.60
2018-01-10T06:23:11.111Z,97.50
2018-01-10T06:24:15.733Z,97.50
2018-01-10T06:25:20.301Z,97.40
2018-01-10T06:26:25.732Z,97.50
2018-01-10T06:27:31.093Z,97.50
2018-01-10T06:28:35.743Z,97.50
2018-01-10T06:29:41.165Z,97.50
2018-01-10T06:30:46.184Z,97.30
2018-01-10T06:31:50.834Z,97.50
2018-01-10T06:32:55.545Z,97.50
2018-01-10T06:34:00.119Z,97.60
2018-01-10T06:35:04.735Z,97.60
2018-01-10T06:36:09.381Z,97.50
2018-01-10T06:37:13.953Z,97.50
2018-01-10T06:38:18.573Z,97.50
2018-01-10T06:39:23.184Z,97.40
2018-01-10T06:40:27.782Z,97.50
2018-01-10T06:41:34.232Z,97.50
2018-01-10T06:42:39.593Z,97.40
2018-01-10T06:43:44.204Z,97.40
2018-01-10T06:44:48.778Z,97.50
2018-01-10T06:45:54.136Z,97.50
2018-01-10T06:46:58.753Z,97.50
2018-01-10T06:48:04.532Z,97.70
2018-01-10T06:49:09.795Z,97.70
2018-01-10T06:50:14.505Z,97.70
2018-01-10T06:51:19.523Z,97.80
2018-01-10T06:52:24.173Z,97.70
2018-01-10T06:53:29.788Z,97.80
2018-01-10T06:54:35.390Z,97.70
2018-01-10T06:55:40.091Z,97.70
2018-01-10T06:56:44.798Z,97.80
2018-01-10T06:57:49.454Z,97.80
2018-01-10T06:58:54.621Z,98.10
2018-01-10T07:00:00.323Z,97.80
2018-01-10T07:01:05.135Z,97.70
2018-01-10T07:02:09.769Z,97.80
2018-01-10T07:03:15.121Z,97.80
2018-01-10T07:04:20.587Z,97.80
2018-01-10T07:05:25.289Z,97.80
2018-01-10T07:06:30.091Z,97.80
2018-01-10T07:07:34.822Z,97.80
2018-01-10T07:08:40.107Z,97.80
2018-01-10T07:09:44.769Z,97.90
2018-01-10T07:10:49.423Z,97.80
2018-01-10T07:11:54.348Z,97.80
2018-01-10T07:12:58.941Z,97.80
2018-01-10T07:14:03.591Z,97.80
2018-01-10T07:15:08.220Z,97.80
2018-01-10T07:16:14.446Z,98.00
2018-01-10T07:17:19.279Z,97.90
2018-01-10T07:18:23.861Z,98.00
2018-01-10T07:19:28.510Z,98.00
2018-01-10T07:20:33.092Z,97.90
2018-01-10T07:21:37.733Z,97.90
2018-01-10T07:22:42.479Z,97.80
2018-01-10T07:23:48.073Z,97.90
2018-01-10T07:24:52.662Z,97.90
2018-01-10T07:25:57.857Z,98.00
2018-01-10T07:27:04.343Z,98.10
2018-01-10T07:28:08.997Z,98.10
2018-01-10T07:29:13.792Z,98.20
2018-01-10T07:30:18.354Z,98.30
2018-01-10T07:31:23.761Z,98.50
2018-01-10T07:32:28.682Z,98.50
2018-01-10T07:33:33.315Z,98.50
2018-01-10T07:34:39.491Z,98.60
2018-01-10T07:35:44.889Z,98.60
2018-01-10T07:36:49.598Z,98.60
2018-01-10T07:37:54.311Z,98.70
2018-01-10T07:38:59.032Z,98.80
2018-01-10T07:40:03.653Z,99.00
2018-01-10T07:41:08.299Z,98.80
2018-01-10T07:42:13.714Z,98.70
2018-01-10T07:43:18.298Z,98.70
2018-01-10T07:44:22.904Z,98.60
2018-01-10T07:45:27.497Z,98.60
2018-01-10T07:46:32.098Z,98.60
2018-01-10T07:47:37.456Z,98.70
2018-01-10T07:48:42.090Z,98.70
2018-01-10T07:49:47.307Z,98.90
2018-01-10T07:50:51.915Z,98.90
2018-01-10T07:51:56.548Z,98.90
2018-01-10T07:53:01.277Z,99.00
2018-01-10T07:54:07.753Z,98.90
2018-01-10T07:55:13.340Z,99.00
2018-01-10T07:56:18.105Z,99.00
2018-01-10T07:57:22.869Z,99.00
2018-01-10T07:58:27.570Z,99.10
2018-01-10T07:59:32.908Z,99.10
2018-01-10T08:00:38.956Z,99.00
2018-01-10T08:01:43.756Z,99.00
2018-01-10T08:02:49.266Z,99.00
2018-01-10T08:03:54.163Z,99.00
2018-01-10T08:04:58.925Z,99.00
2018-01-10T08:06:05.508Z,99.00
2018-01-10T08:07:11.266Z,99.00
2018-01-10T08:08:17.162Z,99.00
2018-01-10T08:09:22.918Z,98.90
2018-01-10T08:10:27.931Z,98.90
2018-01-10T08:11:33.340Z,98.90
2018-01-10T08:12:39.033Z,98.80
2018-01-10T08:13:43.853Z,98.80
2018-01-10T08:14:48.631Z,98.60
2018-01-10T08:15:54.081Z,98.90
2018-01-10T08:16:59.782Z,99.00
2018-01-10T08:18:04.466Z,99.00
2018-01-10T08:19:09.345Z,99.00
2018-01-10T08:20:14.695Z,99.10
2018-01-10T08:21:23.628Z,99.10
2018-01-10T08:22:28.343Z,99.10
2018-01-10T08:23:33.376Z,99.10
2018-01-10T08:24:38.121Z,99.10
2018-01-10T08:25:43.068Z,99.20
2018-01-10T08:26:49.043Z,99.00
2018-01-10T08:27:54.212Z,99.00
2018-01-10T08:28:58.867Z,99.10
2018-01-10T08:30:04.467Z,99.00
2018-01-10T08:31:10.197Z,99.00
2018-01-10T08:32:14.808Z,99.10
2018-01-10T08:33:19.826Z,99.00
2018-01-10T08:34:24.431Z,99.00
2018-01-10T08:35:30.123Z,99.00
2018-01-10T08:36:34.859Z,99.00
2018-01-10T08:37:39.430Z,99.00
2018-01-10T08:38:44.709Z,99.10
2018-01-10T08:39:49.515Z,99.10
2018-01-10T08:40:55.474Z,99.10
2018-01-10T08:42:00.047Z,99.10
2018-01-10T08:43:05.408Z,99.00
2018-01-10T08:44:10.833Z,99.10
2018-01-10T08:45:16.431Z,98.90
2018-01-10T08:46:21.127Z,98.90
2018-01-10T08:47:25.704Z,98.90
2018-01-10T08:48:31.054Z,98.90
2018-01-10T08:49:36.613Z,98.90
2018-01-10T08:50:41.331Z,98.90
2018-01-10T08:51:45.975Z,98.90
2018-01-10T08:52:50.633Z,98.80
2018-01-10T08:53:56.568Z,98.90
2018-01-10T08:55:02.005Z,98.80
2018-01-10T08:56:07.756Z,98.60
2018-01-10T08:57:13.233Z,98.60
2018-01-10T08:58:17.906Z,98.60
2018-01-10T08:59:22.886Z,98.50
2018-01-10T09:00:27.532Z,98.60
2018-01-10T09:01:33.208Z,98.40
2018-01-10T09:02:37.849Z,98.40
2018-01-10T09:03:42.443Z,98.20
2018-01-10T09:04:47.236Z,98.10
2018-01-10T09:05:51.834Z,98.20
2018-01-10T09:06:57.188Z,98.20
2018-01-10T09:08:01.850Z,98.20
2018-01-10T09:09:06.784Z,98.50
2018-01-10T09:10:11.542Z,98.20
2018-01-10T09:11:16.940Z,98.00
2018-01-10T09:12:21.889Z,98.00
2018-01-10T09:13:26.473Z,97.90
2018-01-10T09:14:31.222Z,97.80
2018-01-10T09:15:36.061Z,97.80
2018-01-10T09:16:40.669Z,97.70
2018-01-10T09:17:45.298Z,97.70
2018-01-10T09:18:49.908Z,97.60
2018-01-10T09:19:54.506Z,97.60
2018-01-10T09:20:59.432Z,97.50
2018-01-10T09:22:04.029Z,97.40
2018-01-10T09:23:08.764Z,97.40
2018-01-10T09:24:13.424Z,97.40
2018-01-10T09:25:18.445Z,97.30
2018-01-10T09:26:23.018Z,97.20
2018-01-10T09:27:27.674Z,97.00
2018-01-10T09:28:32.311Z,97.00
2018-01-10T09:29:38.028Z,96.90
2018-01-10T09:30:42.706Z,96.80
2018-01-10T09:31:47.464Z,96.70
2018-01-10T09:32:52.093Z,96.60
2018-01-10T09:33:56.658Z,96.50
2018-01-10T09:35:01.260Z,96.40
2018-01-10T09:36:05.882Z,96.40
2018-01-10T09:37:10.527Z,96.40
2018-01-10T09:38:15.176Z,96.30
2018-01-10T09:39:19.819Z,95.90
2018-01-10T09:40:24.745Z,95.60
2018-01-10T09:41:29.591Z,95.70
2018-01-10T09:42:34.231Z,95.80
2018-01-10T09:43:38.896Z,95.70
2018-01-10T09:44:43.484Z,95.60
2018-01-10T09:45:48.438Z,95.40
2018-01-10T09:46:53.154Z,95.10
2018-01-10T09:47:57.846Z,95.00
2018-01-10T09:49:02.466Z,94.80
2018-01-10T09:50:07.161Z,94.80
2018-01-10T09:51:12.625Z,94.70
2018-01-10T09:52:18.080Z,94.50
2018-01-10T09:53:22.741Z,94.50
2018-01-10T09:54:28.202Z,93.70
2018-01-10T09:55:32.876Z,93.60
2018-01-10T09:56:37.734Z,93.60
2018-01-10T09:57:42.430Z,93.60
2018-01-10T09:58:47.798Z,94.10
2018-01-10T09:59:52.388Z,94.10
2018-01-10T10:00:57.855Z,97.40
2018-01-10T10:02:03.093Z,97.40
2018-01-10T10:03:07.723Z,92.80
2018-01-10T10:04:12.430Z,92.30
2018-01-10T10:05:17.076Z,92.20
2018-01-10T10:06:22.501Z,91.20
2018-01-10T10:07:27.157Z,91.20
2018-01-10T10:08:31.831Z,91.00
2018-01-10T10:09:36.490Z,91.30
2018-01-10T10:10:41.133Z,91.10
2018-01-10T10:11:46.084Z,91.20
2018-01-10T10:12:51.745Z,91.10
2018-01-10T10:13:57.242Z,91.30
2018-01-10T10:15:01.928Z,91.30
2018-01-10T10:16:06.600Z,91.00
2018-01-10T10:17:11.251Z,90.90
2018-01-10T10:18:15.906Z,91.10
2018-01-10T10:19:20.576Z,91.10
2018-01-10T10:20:25.254Z,91.20
2018-01-10T10:21:30.685Z,91.20
2018-01-10T10:22:35.404Z,91.20
2018-01-10T10:23:40.111Z,90.70
2018-01-10T10:24:44.738Z,90.80
2018-01-10T10:25:49.297Z,90.50
2018-01-10T10:26:54.148Z,90.40
2018-01-10T10:27:58.928Z,90.20
2018-01-10T10:29:03.553Z,90.20
2018-01-10T10:30:08.146Z,89.30
2018-01-10T10:31:13.032Z,89.20
2018-01-10T10:32:17.664Z,89.50
2018-01-10T10:33:23.161Z,89.40
2018-01-10T10:34:27.877Z,89.40
2018-01-10T10:35:32.578Z,87.90
2018-01-10T10:36:37.237Z,88.00
2018-01-10T10:37:42.693Z,86.30
2018-01-10T10:39:50.813Z,86.00
2018-01-10T10:40:55.985Z,86.00
2018-01-10T10:42:00.564Z,86.90
2018-01-10T10:43:05.276Z,84.90
2018-01-10T10:44:09.891Z,84.30
2018-01-10T10:45:14.737Z,83.40
2018-01-10T10:46:19.356Z,82.50
2018-01-10T10:47:24.303Z,83.30
2018-01-10T10:48:29.712Z,84.90
2018-01-10T10:49:34.303Z,84.90
2018-01-10T10:50:39.371Z,85.10
2018-01-10T10:51:44.046Z,85.30
2018-01-10T10:52:48.775Z,85.40
2018-01-10T10:53:53.497Z,85.90
2018-01-10T10:54:58.094Z,85.30
2018-01-10T10:56:02.834Z,84.90
2018-01-10T10:57:07.586Z,85.40
2018-01-10T10:58:12.276Z,85.20
2018-01-10T10:59:16.980Z,85.10
2018-01-10T11:00:25.771Z,85.50
2018-01-10T11:01:30.636Z,85.50
2018-01-10T11:02:35.267Z,85.80
2018-01-10T11:03:41.167Z,85.80
2018-01-10T11:04:46.269Z,85.80
2018-01-10T11:05:51.044Z,85.70
2018-01-10T11:06:56.425Z,85.60
2018-01-10T11:08:01.136Z,85.50
2018-01-10T11:09:07.037Z,86.50
2018-01-10T11:10:12.195Z,86.50
2018-01-10T11:11:17.138Z,85.80
2018-01-10T11:12:21.765Z,86.30
2018-01-10T11:13:26.433Z,86.30
2018-01-10T11:14:32.207Z,86.90
2018-01-10T11:15:36.848Z,86.90
2018-01-10T11:16:41.688Z,86.90
2018-01-10T11:17:46.376Z,87.20
2018-01-10T11:18:51.189Z,87.10
2018-01-10T11:19:55.858Z,87.00
2018-01-10T11:21:01.401Z,87.10
2018-01-10T11:22:06.037Z,87.90
2018-01-10T11:23:10.645Z,87.40
2018-01-10T11:24:15.418Z,87.70
2018-01-10T11:25:20.068Z,87.70
2018-01-10T11:26:24.657Z,87.00
2018-01-10T11:27:30.077Z,87.70
2018-01-10T11:28:35.646Z,88.20
2018-01-10T11:29:40.215Z,88.00
2018-01-10T11:30:45.783Z,88.10
2018-01-10T11:31:51.239Z,88.80
2018-01-10T11:32:55.864Z,88.80
2018-01-10T11:34:00.841Z,88.70
2018-01-10T11:35:05.479Z,88.00
2018-01-10T11:36:10.912Z,88.70
2018-01-10T11:37:16.691Z,88.80
2018-01-10T11:38:22.114Z,88.60
2018-01-10T11:39:26.730Z,88.70
2018-01-10T11:40:32.182Z,89.00
2018-01-10T11:41:37.175Z,89.00
2018-01-10T11:42:41.862Z,88.80
2018-01-10T11:43:47.384Z,88.80
2018-01-10T11:44:52.035Z,88.80
2018-01-10T11:45:56.984Z,89.10
2018-01-10T11:47:01.938Z,89.10
2018-01-10T11:48:06.586Z,88.90
2018-01-10T11:49:11.427Z,88.60
2018-01-10T11:50:16.185Z,87.90
2018-01-10T11:51:20.841Z,88.10
2018-01-10T11:52:26.284Z,87.80
2018-01-10T11:53:31.006Z,87.80
2018-01-10T11:54:35.679Z,87.90
2018-01-10T11:55:40.350Z,87.90
2018-01-10T11:56:45.165Z,88.00
2018-01-10T11:57:49.817Z,88.40
2018-01-10T11:58:54.523Z,88.60
2018-01-10T11:59:59.289Z,87.90
2018-01-10T12:01:04.009Z,88.00
2018-01-10T12:02:09.373Z,87.60
2018-01-10T12:03:14.056Z,87.60
2018-01-10T12:04:19.809Z,87.00
2018-01-10T12:05:24.488Z,86.90
2018-01-10T12:06:30.111Z,87.40
2018-01-10T12:07:35.109Z,87.40
2018-01-10T12:08:39.965Z,86.90
2018-01-10T12:09:44.618Z,87.00
2018-01-10T12:10:49.645Z,87.10
2018-01-10T12:11:54.224Z,86.80
2018-01-10T12:12:59.644Z,87.30
2018-01-10T12:14:04.260Z,87.30
2018-01-10T12:15:09.405Z,87.50
2018-01-10T12:16:15.399Z,87.50
2018-01-10T12:17:20.144Z,87.40
2018-01-10T12:18:26.230Z,87.20
2018-01-10T12:19:33.382Z,86.50
2018-01-10T12:20:41.054Z,86.50
2018-01-10T12:21:46.700Z,86.80
2018-01-10T12:22:51.485Z,86.50
2018-01-10T12:23:56.388Z,86.80
2018-01-10T12:25:01.707Z,87.00
2018-01-10T12:26:06.668Z,87.20
2018-01-10T12:27:11.294Z,86.90
2018-01-10T12:28:20.087Z,86.80
2018-01-10T12:29:24.796Z,86.80
2018-01-10T12:30:29.869Z,86.90
2018-01-10T12:31:35.094Z,87.10
2018-01-10T12:32:39.813Z,87.00
2018-01-10T12:33:45.370Z,86.50
2018-01-10T12:34:50.937Z,86.20
2018-01-10T12:35:55.796Z,86.10
2018-01-10T12:37:00.704Z,85.70
2018-01-10T12:38:05.557Z,86.00
2018-01-10T12:39:10.416Z,85.50
2018-01-10T12:40:15.869Z,85.50
2018-01-10T12:41:20.601Z,85.60
2018-01-10T12:42:25.230Z,85.60
2018-01-10T12:43:30.351Z,85.90
2018-01-10T12:44:36.060Z,86.00
2018-01-10T12:45:40.875Z,86.20
2018-01-10T12:46:45.635Z,85.90
2018-01-10T12:47:50.296Z,85.80
2018-01-10T12:48:54.976Z,85.30
2018-01-10T12:49:59.601Z,85.80
2018-01-10T12:51:05.046Z,85.90
2018-01-10T12:52:10.579Z,84.80
2018-01-10T12:53:16.148Z,84.60
2018-01-10T12:54:20.780Z,84.40
2018-01-10T12:55:25.581Z,84.50
2018-01-10T12:56:30.186Z,84.70
2018-01-10T12:57:34.904Z,84.80
2018-01-10T12:58:40.400Z,84.80
2018-01-10T12:59:48.472Z,84.90
2018-01-10T13:00:53.559Z,85.50
2018-01-10T13:01:58.245Z,84.30
2018-01-10T13:03:03.718Z,84.00
2018-01-10T13:04:08.394Z,84.00
2018-01-10T13:05:13.087Z,83.70
2018-01-10T13:06:18.069Z,83.40
2018-01-10T13:07:22.691Z,83.40
2018-01-10T13:08:27.400Z,82.80
2018-01-10T13:09:32.147Z,83.50
2018-01-10T13:10:36.841Z,83.40
2018-01-10T13:11:41.850Z,83.10
2018-01-10T13:12:46.498Z,83.10
2018-01-10T13:13:51.109Z,82.60
2018-01-10T13:14:55.977Z,82.20
2018-01-10T13:16:01.396Z,81.50
2018-01-10T13:17:06.940Z,81.20
2018-01-10T13:18:12.348Z,81.40
2018-01-10T13:19:17.176Z,81.40
2018-01-10T13:20:21.910Z,81.10
2018-01-10T13:21:27.318Z,81.10
2018-01-10T13:22:32.077Z,81.90
2018-01-10T13:23:36.860Z,80.20
2018-01-10T13:24:41.632Z,80.30
2018-01-10T13:25:46.316Z,79.90
2018-01-10T13:26:51.888Z,79.90
2018-01-10T13:27:56.981Z,79.90
2018-01-10T13:29:02.305Z,79.90
2018-01-10T13:30:07.887Z,79.00
2018-01-10T13:31:12.602Z,78.80
2018-01-10T13:32:17.277Z,78.50
2018-01-10T13:33:22.737Z,78.70
2018-01-10T13:34:27.453Z,78.70
2018-01-10T13:35:32.192Z,78.30
2018-01-10T13:36:36.869Z,77.80
2018-01-10T13:37:42.356Z,77.00
2018-01-10T13:38:47.019Z,77.00
2018-01-10T13:39:52.493Z,76.40
2018-01-10T13:40:57.275Z,76.40
2018-01-10T13:42:02.694Z,76.60
2018-01-10T13:43:08.167Z,76.40
2018-01-10T13:44:12.964Z,76.30
2018-01-10T13:45:18.696Z,77.60
2018-01-10T13:46:24.098Z,77.60
2018-01-10T13:47:28.816Z,77.50
2018-01-10T13:48:33.586Z,78.10
2018-01-10T13:49:38.200Z,78.90
2018-01-10T13:50:43.022Z,79.50
2018-01-10T13:51:47.755Z,79.80
2018-01-10T13:53:04.196Z,80.10
2018-01-10T13:54:09.625Z,80.30
2018-01-10T13:55:15.063Z,80.60
2018-01-10T13:56:20.869Z,81.30
2018-01-10T13:57:25.476Z,81.30
2018-01-10T13:58:30.110Z,81.10
2018-01-10T13:59:36.024Z,81.20
2018-01-10T14:00:40.697Z,81.20